sensor_id;sensor_type;location;lat;lon;timestamp;temperature;humidity
20291;DHT22;10304;51.074;13.754;2023-04-25T00:00:50;13.10;1.00
20291;DHT22;10304;51.074;13.754;2023-04-25T00:03:19;13.00;1.00
20291;DHT22;10304;51.074;13.754;2023-04-25T00:05:47;13.10;1.00
20291;DHT22;10304;51.074;13.754;2023-04-25T00:08:15;13.10;1.00
20291;DHT22;10304;51.074;13.754;2023-04-25T00:10:42;13.10;1.00
20291;DHT22;10304;51.074;13.754;2023-04-25T00:13:08;13.10;1.00
20291;DHT22;10304;51.074;13.754;2023-04-25T00:15:37;13.10;1.00
20291;DHT22;10304;51.074;13.754;2023-04-25T00:18:05;13.10;1.00
20291;DHT22;10304;51.074;13.754;2023-04-25T00:20:32;13.10;1.00
20291;DHT22;10304;51.074;13.754;2023-04-25T00:22:59;13.10;1.00
20291;DHT22;10304;51.074;13.754;2023-04-25T00:25:26;13.00;1.00
20291;DHT22;10304;51.074;13.754;2023-04-25T00:27:52;13.00;1.00
20291;DHT22;10304;51.074;13.754;2023-04-25T00:30:19;13.00;1.00
20291;DHT22;10304;51.074;13.754;2023-04-25T00:32:46;13.00;1.00
20291;DHT22;10304;51.074;13.754;2023-04-25T00:35:13;13.00;1.00
20291;DHT22;10304;51.074;13.754;2023-04-25T00:37:39;13.00;1.00
20291;DHT22;10304;51.074;13.754;2023-04-25T00:40:07;13.00;23.20
20291;DHT22;10304;51.074;13.754;2023-04-25T00:42:35;12.90;48.30
20291;DHT22;10304;51.074;13.754;2023-04-25T00:45:05;12.80;87.30
20291;DHT22;10304;51.074;13.754;2023-04-25T00:47:33;12.80;88.40
20291;DHT22;10304;51.074;13.754;2023-04-25T00:50:02;12.80;99.90
20291;DHT22;10304;51.074;13.754;2023-04-25T00:52:29;12.70;99.90
20291;DHT22;10304;51.074;13.754;2023-04-25T00:54:56;12.70;99.90
20291;DHT22;10304;51.074;13.754;2023-04-25T00:57:23;12.70;99.90
20291;DHT22;10304;51.074;13.754;2023-04-25T00:59:51;12.70;99.90
20291;DHT22;10304;51.074;13.754;2023-04-25T01:02:19;12.70;99.90
20291;DHT22;10304;51.074;13.754;2023-04-25T01:04:48;12.70;99.90
20291;DHT22;10304;51.074;13.754;2023-04-25T01:07:14;12.60;99.90
20291;DHT22;10304;51.074;13.754;2023-04-25T01:09:42;12.60;99.90
20291;DHT22;10304;51.074;13.754;2023-04-25T01:12:09;12.60;99.90
20291;DHT22;10304;51.074;13.754;2023-04-25T01:14:36;12.60;99.90
20291;DHT22;10304;51.074;13.754;2023-04-25T01:17:02;12.50;99.90
20291;DHT22;10304;51.074;13.754;2023-04-25T01:19:29;12.50;99.90
20291;DHT22;10304;51.074;13.754;2023-04-25T01:21:57;12.50;99.90
20291;DHT22;10304;51.074;13.754;2023-04-25T01:24:24;12.40;99.90
20291;DHT22;10304;51.074;13.754;2023-04-25T01:26:51;12.40;99.90
20291;DHT22;10304;51.074;13.754;2023-04-25T01:29:18;12.30;99.90
20291;DHT22;10304;51.074;13.754;2023-04-25T01:31:46;12.30;99.90
20291;DHT22;10304;51.074;13.754;2023-04-25T01:34:13;12.30;99.90
20291;DHT22;10304;51.074;13.754;2023-04-25T01:36:40;12.20;99.90
20291;DHT22;10304;51.074;13.754;2023-04-25T01:39:07;12.20;99.90
20291;DHT22;10304;51.074;13.754;2023-04-25T01:41:34;12.10;99.90
20291;DHT22;10304;51.074;13.754;2023-04-25T01:44:03;12.10;99.90
20291;DHT22;10304;51.074;13.754;2023-04-25T01:46:30;12.10;99.90
20291;DHT22;10304;51.074;13.754;2023-04-25T01:48:57;12.10;99.90
20291;DHT22;10304;51.074;13.754;2023-04-25T01:51:24;12.10;99.90
20291;DHT22;10304;51.074;13.754;2023-04-25T01:53:50;12.10;99.90
20291;DHT22;10304;51.074;13.754;2023-04-25T01:56:18;12.10;99.90
20291;DHT22;10304;51.074;13.754;2023-04-25T01:58:45;12.10;99.90
20291;DHT22;10304;51.074;13.754;2023-04-25T02:01:12;12.00;99.90
20291;DHT22;10304;51.074;13.754;2023-04-25T02:03:39;12.00;99.90
20291;DHT22;10304;51.074;13.754;2023-04-25T02:06:06;11.90;99.90
20291;DHT22;10304;51.074;13.754;2023-04-25T02:08:32;11.90;99.90
20291;DHT22;10304;51.074;13.754;2023-04-25T02:10:59;11.80;99.90
20291;DHT22;10304;51.074;13.754;2023-04-25T02:13:26;11.80;99.90
20291;DHT22;10304;51.074;13.754;2023-04-25T02:15:53;11.80;99.90
20291;DHT22;10304;51.074;13.754;2023-04-25T02:18:20;11.80;99.90
20291;DHT22;10304;51.074;13.754;2023-04-25T02:20:47;11.80;99.90
20291;DHT22;10304;51.074;13.754;2023-04-25T02:23:14;11.70;99.90
20291;DHT22;10304;51.074;13.754;2023-04-25T02:25:42;11.60;99.90
20291;DHT22;10304;51.074;13.754;2023-04-25T02:28:08;11.60;99.90
20291;DHT22;10304;51.074;13.754;2023-04-25T02:30:35;11.60;99.90
20291;DHT22;10304;51.074;13.754;2023-04-25T02:33:02;11.60;99.90
20291;DHT22;10304;51.074;13.754;2023-04-25T02:35:29;11.50;99.90
20291;DHT22;10304;51.074;13.754;2023-04-25T02:37:55;11.50;99.90
20291;DHT22;10304;51.074;13.754;2023-04-25T02:40:22;11.40;99.90
20291;DHT22;10304;51.074;13.754;2023-04-25T02:42:49;11.40;99.90
20291;DHT22;10304;51.074;13.754;2023-04-25T02:45:16;11.40;99.90
20291;DHT22;10304;51.074;13.754;2023-04-25T02:47:42;11.40;99.90
20291;DHT22;10304;51.074;13.754;2023-04-25T02:50:09;11.40;99.90
20291;DHT22;10304;51.074;13.754;2023-04-25T02:52:36;11.40;99.90
20291;DHT22;10304;51.074;13.754;2023-04-25T02:55:03;11.40;99.90
20291;DHT22;10304;51.074;13.754;2023-04-25T02:57:30;11.30;99.90
20291;DHT22;10304;51.074;13.754;2023-04-25T02:59:56;11.30;99.90
20291;DHT22;10304;51.074;13.754;2023-04-25T03:02:23;11.30;99.90
20291;DHT22;10304;51.074;13.754;2023-04-25T03:04:50;11.30;99.90
20291;DHT22;10304;51.074;13.754;2023-04-25T03:07:16;11.20;99.90
20291;DHT22;10304;51.074;13.754;2023-04-25T03:09:43;11.20;99.90
20291;DHT22;10304;51.074;13.754;2023-04-25T03:12:10;11.30;99.90
20291;DHT22;10304;51.074;13.754;2023-04-25T03:14:36;11.30;99.90
20291;DHT22;10304;51.074;13.754;2023-04-25T03:17:03;11.30;99.90
20291;DHT22;10304;51.074;13.754;2023-04-25T03:19:29;11.30;99.90
20291;DHT22;10304;51.074;13.754;2023-04-25T03:21:57;11.30;99.90
20291;DHT22;10304;51.074;13.754;2023-04-25T03:24:23;11.30;99.90
20291;DHT22;10304;51.074;13.754;2023-04-25T03:26:50;11.30;99.90
20291;DHT22;10304;51.074;13.754;2023-04-25T03:29:17;11.20;99.90
20291;DHT22;10304;51.074;13.754;2023-04-25T03:31:43;11.20;99.90
20291;DHT22;10304;51.074;13.754;2023-04-25T03:34:10;11.20;99.90
20291;DHT22;10304;51.074;13.754;2023-04-25T03:36:37;11.10;99.90
20291;DHT22;10304;51.074;13.754;2023-04-25T03:39:06;11.10;99.90
20291;DHT22;10304;51.074;13.754;2023-04-25T03:41:33;11.10;99.90
20291;DHT22;10304;51.074;13.754;2023-04-25T03:44:00;11.10;99.90
20291;DHT22;10304;51.074;13.754;2023-04-25T03:46:26;11.10;99.90
20291;DHT22;10304;51.074;13.754;2023-04-25T03:48:53;11.10;99.90
20291;DHT22;10304;51.074;13.754;2023-04-25T03:51:20;11.10;99.90
20291;DHT22;10304;51.074;13.754;2023-04-25T03:53:47;11.10;99.90
20291;DHT22;10304;51.074;13.754;2023-04-25T03:56:14;11.10;99.90
20291;DHT22;10304;51.074;13.754;2023-04-25T03:58:41;11.10;99.90
20291;DHT22;10304;51.074;13.754;2023-04-25T04:01:08;11.00;99.90
20291;DHT22;10304;51.074;13.754;2023-04-25T04:03:35;10.90;99.90
20291;DHT22;10304;51.074;13.754;2023-04-25T04:06:04;10.90;99.90
20291;DHT22;10304;51.074;13.754;2023-04-25T04:08:32;10.90;99.90
20291;DHT22;10304;51.074;13.754;2023-04-25T04:10:59;10.90;99.90
20291;DHT22;10304;51.074;13.754;2023-04-25T04:13:27;10.90;99.90
20291;DHT22;10304;51.074;13.754;2023-04-25T04:15:54;10.90;99.90
20291;DHT22;10304;51.074;13.754;2023-04-25T04:18:22;10.80;99.90
20291;DHT22;10304;51.074;13.754;2023-04-25T04:20:48;10.90;99.90
20291;DHT22;10304;51.074;13.754;2023-04-25T04:23:15;10.80;99.90
20291;DHT22;10304;51.074;13.754;2023-04-25T04:25:42;10.80;99.90
20291;DHT22;10304;51.074;13.754;2023-04-25T04:28:09;10.80;99.90
20291;DHT22;10304;51.074;13.754;2023-04-25T04:30:37;10.80;99.90
20291;DHT22;10304;51.074;13.754;2023-04-25T04:33:05;10.80;99.90
20291;DHT22;10304;51.074;13.754;2023-04-25T04:35:34;10.80;99.90
20291;DHT22;10304;51.074;13.754;2023-04-25T04:38:00;10.80;99.90
20291;DHT22;10304;51.074;13.754;2023-04-25T04:40:27;10.70;99.90
20291;DHT22;10304;51.074;13.754;2023-04-25T04:42:54;10.70;99.90
20291;DHT22;10304;51.074;13.754;2023-04-25T04:45:23;10.70;99.90
20291;DHT22;10304;51.074;13.754;2023-04-25T04:47:50;10.70;99.90
20291;DHT22;10304;51.074;13.754;2023-04-25T04:50:17;10.80;99.90
20291;DHT22;10304;51.074;13.754;2023-04-25T04:52:44;10.80;99.90
20291;DHT22;10304;51.074;13.754;2023-04-25T04:55:11;10.90;99.90
20291;DHT22;10304;51.074;13.754;2023-04-25T04:57:38;10.90;99.90
20291;DHT22;10304;51.074;13.754;2023-04-25T05:00:06;10.90;99.90
20291;DHT22;10304;51.074;13.754;2023-04-25T05:02:38;11.00;99.90
20291;DHT22;10304;51.074;13.754;2023-04-25T05:05:05;11.00;99.90
20291;DHT22;10304;51.074;13.754;2023-04-25T05:07:32;11.00;99.90
20291;DHT22;10304;51.074;13.754;2023-04-25T05:09:59;11.00;99.90
20291;DHT22;10304;51.074;13.754;2023-04-25T05:12:26;11.00;99.90
20291;DHT22;10304;51.074;13.754;2023-04-25T05:14:52;11.00;99.90
20291;DHT22;10304;51.074;13.754;2023-04-25T05:17:19;11.00;99.90
20291;DHT22;10304;51.074;13.754;2023-04-25T05:19:46;11.00;99.90
20291;DHT22;10304;51.074;13.754;2023-04-25T05:22:12;11.00;99.90
20291;DHT22;10304;51.074;13.754;2023-04-25T05:24:39;11.10;99.90
20291;DHT22;10304;51.074;13.754;2023-04-25T05:27:06;11.10;99.90
20291;DHT22;10304;51.074;13.754;2023-04-25T05:29:33;11.00;99.90
20291;DHT22;10304;51.074;13.754;2023-04-25T05:31:59;11.10;99.90
20291;DHT22;10304;51.074;13.754;2023-04-25T05:34:26;11.10;99.90
20291;DHT22;10304;51.074;13.754;2023-04-25T05:36:53;11.20;99.90
20291;DHT22;10304;51.074;13.754;2023-04-25T05:39:20;11.20;99.90
20291;DHT22;10304;51.074;13.754;2023-04-25T05:41:47;11.30;99.90
20291;DHT22;10304;51.074;13.754;2023-04-25T05:44:13;11.20;99.90
20291;DHT22;10304;51.074;13.754;2023-04-25T05:46:42;11.30;99.90
20291;DHT22;10304;51.074;13.754;2023-04-25T05:49:09;11.30;99.90
20291;DHT22;10304;51.074;13.754;2023-04-25T05:51:35;11.40;99.90
20291;DHT22;10304;51.074;13.754;2023-04-25T05:54:02;11.50;48.20
20291;DHT22;10304;51.074;13.754;2023-04-25T05:56:29;11.50;56.20
20291;DHT22;10304;51.074;13.754;2023-04-25T05:58:56;11.50;43.40
20291;DHT22;10304;51.074;13.754;2023-04-25T06:01:23;11.60;35.00
20291;DHT22;10304;51.074;13.754;2023-04-25T06:03:49;11.50;1.40
20291;DHT22;10304;51.074;13.754;2023-04-25T06:06:18;11.50;1.00
20291;DHT22;10304;51.074;13.754;2023-04-25T06:08:45;11.50;1.00
20291;DHT22;10304;51.074;13.754;2023-04-25T06:11:12;11.60;1.00
20291;DHT22;10304;51.074;13.754;2023-04-25T06:13:39;11.60;1.00
20291;DHT22;10304;51.074;13.754;2023-04-25T06:16:06;11.60;1.00
20291;DHT22;10304;51.074;13.754;2023-04-25T06:18:32;11.70;1.00
20291;DHT22;10304;51.074;13.754;2023-04-25T06:20:59;11.70;1.00
20291;DHT22;10304;51.074;13.754;2023-04-25T06:23:26;11.70;1.00
20291;DHT22;10304;51.074;13.754;2023-04-25T06:25:53;11.70;1.00
20291;DHT22;10304;51.074;13.754;2023-04-25T06:28:19;11.70;1.00
20291;DHT22;10304;51.074;13.754;2023-04-25T06:30:48;11.70;1.00
20291;DHT22;10304;51.074;13.754;2023-04-25T06:33:15;11.70;1.00
20291;DHT22;10304;51.074;13.754;2023-04-25T06:35:42;11.80;1.00
20291;DHT22;10304;51.074;13.754;2023-04-25T06:38:08;11.70;1.00
20291;DHT22;10304;51.074;13.754;2023-04-25T06:40:35;11.80;1.00
20291;DHT22;10304;51.074;13.754;2023-04-25T06:43:02;11.90;1.00
20291;DHT22;10304;51.074;13.754;2023-04-25T06:45:29;11.90;1.00
20291;DHT22;10304;51.074;13.754;2023-04-25T06:47:55;11.90;1.00
20291;DHT22;10304;51.074;13.754;2023-04-25T06:50:22;11.90;1.00
20291;DHT22;10304;51.074;13.754;2023-04-25T06:52:49;12.00;1.00
20291;DHT22;10304;51.074;13.754;2023-04-25T06:55:16;12.00;1.00
20291;DHT22;10304;51.074;13.754;2023-04-25T06:57:43;12.00;1.00
20291;DHT22;10304;51.074;13.754;2023-04-25T07:00:10;12.10;1.00
20291;DHT22;10304;51.074;13.754;2023-04-25T07:02:37;12.10;1.00
20291;DHT22;10304;51.074;13.754;2023-04-25T07:05:04;12.10;1.00
20291;DHT22;10304;51.074;13.754;2023-04-25T07:07:31;12.20;1.00
20291;DHT22;10304;51.074;13.754;2023-04-25T07:09:57;12.20;1.00
20291;DHT22;10304;51.074;13.754;2023-04-25T07:12:24;12.30;1.00
20291;DHT22;10304;51.074;13.754;2023-04-25T07:14:51;12.40;1.00
20291;DHT22;10304;51.074;13.754;2023-04-25T07:17:17;12.50;1.00
20291;DHT22;10304;51.074;13.754;2023-04-25T07:19:45;12.60;1.00
20291;DHT22;10304;51.074;13.754;2023-04-25T07:22:12;12.70;1.00
20291;DHT22;10304;51.074;13.754;2023-04-25T07:24:39;12.80;1.00
20291;DHT22;10304;51.074;13.754;2023-04-25T07:27:05;12.80;1.00
20291;DHT22;10304;51.074;13.754;2023-04-25T07:29:32;12.90;1.00
20291;DHT22;10304;51.074;13.754;2023-04-25T07:32:02;13.00;1.00
20291;DHT22;10304;51.074;13.754;2023-04-25T07:34:29;13.00;1.00
20291;DHT22;10304;51.074;13.754;2023-04-25T07:36:56;13.10;1.00
20291;DHT22;10304;51.074;13.754;2023-04-25T07:39:23;13.20;1.00
20291;DHT22;10304;51.074;13.754;2023-04-25T07:41:50;13.30;1.00
20291;DHT22;10304;51.074;13.754;2023-04-25T07:44:20;13.30;1.00
20291;DHT22;10304;51.074;13.754;2023-04-25T07:46:47;13.20;1.00
20291;DHT22;10304;51.074;13.754;2023-04-25T07:49:14;13.30;1.00
20291;DHT22;10304;51.074;13.754;2023-04-25T07:51:41;13.40;1.00
20291;DHT22;10304;51.074;13.754;2023-04-25T07:54:14;13.40;1.00
20291;DHT22;10304;51.074;13.754;2023-04-25T07:56:41;13.50;1.00
20291;DHT22;10304;51.074;13.754;2023-04-25T07:59:19;13.50;1.00
20291;DHT22;10304;51.074;13.754;2023-04-25T08:01:46;13.60;1.00
20291;DHT22;10304;51.074;13.754;2023-04-25T08:04:12;13.70;1.00
20291;DHT22;10304;51.074;13.754;2023-04-25T08:06:39;13.70;1.00
20291;DHT22;10304;51.074;13.754;2023-04-25T08:09:07;13.70;1.00
20291;DHT22;10304;51.074;13.754;2023-04-25T08:11:36;13.80;1.00
20291;DHT22;10304;51.074;13.754;2023-04-25T08:14:03;13.90;1.00
20291;DHT22;10304;51.074;13.754;2023-04-25T08:16:30;14.00;1.00
20291;DHT22;10304;51.074;13.754;2023-04-25T08:18:56;14.10;1.00
20291;DHT22;10304;51.074;13.754;2023-04-25T08:21:24;14.20;1.00
20291;DHT22;10304;51.074;13.754;2023-04-25T08:23:53;14.30;1.00
20291;DHT22;10304;51.074;13.754;2023-04-25T08:26:19;14.30;1.00
20291;DHT22;10304;51.074;13.754;2023-04-25T08:28:46;14.30;1.00
20291;DHT22;10304;51.074;13.754;2023-04-25T08:31:14;14.40;1.00
20291;DHT22;10304;51.074;13.754;2023-04-25T08:33:41;14.50;1.00
20291;DHT22;10304;51.074;13.754;2023-04-25T08:36:08;14.60;1.00
20291;DHT22;10304;51.074;13.754;2023-04-25T08:38:35;14.70;1.00
20291;DHT22;10304;51.074;13.754;2023-04-25T08:41:03;14.80;1.00
20291;DHT22;10304;51.074;13.754;2023-04-25T08:43:32;14.80;1.00
20291;DHT22;10304;51.074;13.754;2023-04-25T08:46:00;14.80;1.00
20291;DHT22;10304;51.074;13.754;2023-04-25T08:48:27;14.80;1.00
20291;DHT22;10304;51.074;13.754;2023-04-25T08:50:57;14.70;1.00
20291;DHT22;10304;51.074;13.754;2023-04-25T08:53:30;14.60;1.00
20291;DHT22;10304;51.074;13.754;2023-04-25T08:55:58;14.60;1.00
20291;DHT22;10304;51.074;13.754;2023-04-25T08:58:27;14.60;1.00
20291;DHT22;10304;51.074;13.754;2023-04-25T09:00:54;14.60;1.00
20291;DHT22;10304;51.074;13.754;2023-04-25T09:03:21;14.60;1.00
20291;DHT22;10304;51.074;13.754;2023-04-25T09:05:48;14.60;1.00
20291;DHT22;10304;51.074;13.754;2023-04-25T09:08:15;14.70;1.00
20291;DHT22;10304;51.074;13.754;2023-04-25T09:10:42;14.70;1.00
20291;DHT22;10304;51.074;13.754;2023-04-25T09:13:12;14.70;1.00
20291;DHT22;10304;51.074;13.754;2023-04-25T09:15:52;14.70;1.00
20291;DHT22;10304;51.074;13.754;2023-04-25T09:18:27;14.80;1.00
20291;DHT22;10304;51.074;13.754;2023-04-25T09:21:09;14.80;1.00
20291;DHT22;10304;51.074;13.754;2023-04-25T09:23:48;14.80;1.00
20291;DHT22;10304;51.074;13.754;2023-04-25T09:26:20;14.80;1.00
20291;DHT22;10304;51.074;13.754;2023-04-25T09:28:47;14.80;1.00
20291;DHT22;10304;51.074;13.754;2023-04-25T09:31:23;14.80;1.00
20291;DHT22;10304;51.074;13.754;2023-04-25T09:34:01;14.80;1.00
20291;DHT22;10304;51.074;13.754;2023-04-25T09:36:30;14.70;1.00
20291;DHT22;10304;51.074;13.754;2023-04-25T09:38:59;14.70;1.00
20291;DHT22;10304;51.074;13.754;2023-04-25T09:41:27;14.60;1.00
20291;DHT22;10304;51.074;13.754;2023-04-25T09:43:57;14.50;1.00
20291;DHT22;10304;51.074;13.754;2023-04-25T09:46:25;14.40;1.00
20291;DHT22;10304;51.074;13.754;2023-04-25T09:48:52;14.30;1.00
20291;DHT22;10304;51.074;13.754;2023-04-25T09:51:22;14.20;1.00
20291;DHT22;10304;51.074;13.754;2023-04-25T09:53:52;14.00;1.00
20291;DHT22;10304;51.074;13.754;2023-04-25T09:56:19;13.90;1.00
20291;DHT22;10304;51.074;13.754;2023-04-25T09:58:47;13.80;1.00
20291;DHT22;10304;51.074;13.754;2023-04-25T10:01:14;13.80;1.00
20291;DHT22;10304;51.074;13.754;2023-04-25T10:03:43;13.70;1.00
20291;DHT22;10304;51.074;13.754;2023-04-25T10:06:14;13.70;1.00
20291;DHT22;10304;51.074;13.754;2023-04-25T10:08:44;13.70;1.00
20291;DHT22;10304;51.074;13.754;2023-04-25T10:11:14;13.70;1.00
20291;DHT22;10304;51.074;13.754;2023-04-25T10:13:42;13.80;1.00
20291;DHT22;10304;51.074;13.754;2023-04-25T10:16:10;13.90;1.00
20291;DHT22;10304;51.074;13.754;2023-04-25T10:18:36;14.00;1.00
20291;DHT22;10304;51.074;13.754;2023-04-25T10:21:06;14.10;1.00
20291;DHT22;10304;51.074;13.754;2023-04-25T10:23:33;14.20;1.00
20291;DHT22;10304;51.074;13.754;2023-04-25T10:26:01;14.30;1.00
20291;DHT22;10304;51.074;13.754;2023-04-25T10:28:28;14.30;1.00
20291;DHT22;10304;51.074;13.754;2023-04-25T10:31:02;14.20;1.00
20291;DHT22;10304;51.074;13.754;2023-04-25T10:33:33;14.20;1.00
20291;DHT22;10304;51.074;13.754;2023-04-25T10:36:12;14.20;1.00
20291;DHT22;10304;51.074;13.754;2023-04-25T10:38:40;14.30;1.00
20291;DHT22;10304;51.074;13.754;2023-04-25T10:41:09;14.30;1.00
20291;DHT22;10304;51.074;13.754;2023-04-25T10:43:42;14.30;1.00
20291;DHT22;10304;51.074;13.754;2023-04-25T10:46:22;14.30;1.00
20291;DHT22;10304;51.074;13.754;2023-04-25T10:48:53;14.40;1.00
20291;DHT22;10304;51.074;13.754;2023-04-25T10:51:28;14.50;1.00
20291;DHT22;10304;51.074;13.754;2023-04-25T10:54:08;14.40;1.00
20291;DHT22;10304;51.074;13.754;2023-04-25T10:56:41;14.40;1.00
20291;DHT22;10304;51.074;13.754;2023-04-25T10:59:18;14.40;1.00
20291;DHT22;10304;51.074;13.754;2023-04-25T11:01:52;14.40;1.00
20291;DHT22;10304;51.074;13.754;2023-04-25T11:04:32;14.30;1.00
20291;DHT22;10304;51.074;13.754;2023-04-25T11:09:39;14.00;1.00
20291;DHT22;10304;51.074;13.754;2023-04-25T11:12:10;13.90;1.00
20291;DHT22;10304;51.074;13.754;2023-04-25T11:15:05;13.80;1.00
20291;DHT22;10304;51.074;13.754;2023-04-25T11:17:32;13.70;1.00
20291;DHT22;10304;51.074;13.754;2023-04-25T11:20:00;13.60;1.00
20291;DHT22;10304;51.074;13.754;2023-04-25T11:22:27;13.50;1.00
20291;DHT22;10304;51.074;13.754;2023-04-25T11:24:53;13.50;1.00
20291;DHT22;10304;51.074;13.754;2023-04-25T11:27:20;13.50;1.00
20291;DHT22;10304;51.074;13.754;2023-04-25T11:29:47;13.40;1.00
20291;DHT22;10304;51.074;13.754;2023-04-25T11:32:16;13.50;1.00
20291;DHT22;10304;51.074;13.754;2023-04-25T11:34:44;13.40;1.00
20291;DHT22;10304;51.074;13.754;2023-04-25T11:37:14;13.50;1.00
20291;DHT22;10304;51.074;13.754;2023-04-25T11:39:45;13.60;1.00
20291;DHT22;10304;51.074;13.754;2023-04-25T11:42:12;13.70;1.00
20291;DHT22;10304;51.074;13.754;2023-04-25T11:44:39;13.90;1.00
20291;DHT22;10304;51.074;13.754;2023-04-25T11:47:07;14.00;1.00
20291;DHT22;10304;51.074;13.754;2023-04-25T11:49:35;14.10;1.00
20291;DHT22;10304;51.074;13.754;2023-04-25T11:52:02;14.20;1.00
20291;DHT22;10304;51.074;13.754;2023-04-25T11:54:29;14.30;1.00
20291;DHT22;10304;51.074;13.754;2023-04-25T11:56:55;14.40;1.00
20291;DHT22;10304;51.074;13.754;2023-04-25T11:59:24;14.50;1.00
20291;DHT22;10304;51.074;13.754;2023-04-25T12:01:51;14.50;1.00
20291;DHT22;10304;51.074;13.754;2023-04-25T12:04:20;14.60;1.00
20291;DHT22;10304;51.074;13.754;2023-04-25T12:06:50;14.70;1.00
20291;DHT22;10304;51.074;13.754;2023-04-25T12:09:37;14.80;1.00
20291;DHT22;10304;51.074;13.754;2023-04-25T12:12:04;14.90;1.00
20291;DHT22;10304;51.074;13.754;2023-04-25T12:14:34;14.90;1.00
20291;DHT22;10304;51.074;13.754;2023-04-25T12:17:03;14.80;1.00
20291;DHT22;10304;51.074;13.754;2023-04-25T12:19:35;14.70;1.00
20291;DHT22;10304;51.074;13.754;2023-04-25T12:22:03;14.50;1.00
20291;DHT22;10304;51.074;13.754;2023-04-25T12:24:33;14.40;1.00
20291;DHT22;10304;51.074;13.754;2023-04-25T12:27:06;14.30;1.00
20291;DHT22;10304;51.074;13.754;2023-04-25T12:29:35;14.30;1.00
20291;DHT22;10304;51.074;13.754;2023-04-25T12:32:14;14.30;1.00
20291;DHT22;10304;51.074;13.754;2023-04-25T12:34:42;14.30;1.00
20291;DHT22;10304;51.074;13.754;2023-04-25T12:37:10;14.40;1.00
20291;DHT22;10304;51.074;13.754;2023-04-25T12:39:37;14.30;1.00
20291;DHT22;10304;51.074;13.754;2023-04-25T12:42:03;14.40;1.00
20291;DHT22;10304;51.074;13.754;2023-04-25T12:44:34;14.60;1.00
20291;DHT22;10304;51.074;13.754;2023-04-25T12:47:01;14.90;1.00
20291;DHT22;10304;51.074;13.754;2023-04-25T12:49:30;15.10;1.00
20291;DHT22;10304;51.074;13.754;2023-04-25T12:51:56;15.20;1.00
20291;DHT22;10304;51.074;13.754;2023-04-25T12:54:23;15.20;1.00
20291;DHT22;10304;51.074;13.754;2023-04-25T12:56:51;15.00;1.00
20291;DHT22;10304;51.074;13.754;2023-04-25T12:59:18;15.00;1.00
20291;DHT22;10304;51.074;13.754;2023-04-25T13:01:46;15.00;1.00
20291;DHT22;10304;51.074;13.754;2023-04-25T13:04:13;14.90;1.00
20291;DHT22;10304;51.074;13.754;2023-04-25T13:06:40;14.90;1.00
20291;DHT22;10304;51.074;13.754;2023-04-25T13:09:07;14.90;1.00
20291;DHT22;10304;51.074;13.754;2023-04-25T13:11:33;14.90;1.00
20291;DHT22;10304;51.074;13.754;2023-04-25T13:14:00;14.90;1.00
20291;DHT22;10304;51.074;13.754;2023-04-25T13:16:27;14.80;1.00
20291;DHT22;10304;51.074;13.754;2023-04-25T13:18:54;14.60;1.00
20291;DHT22;10304;51.074;13.754;2023-04-25T13:21:22;14.50;1.00
20291;DHT22;10304;51.074;13.754;2023-04-25T13:23:49;14.30;1.00
20291;DHT22;10304;51.074;13.754;2023-04-25T13:26:17;14.20;1.00
20291;DHT22;10304;51.074;13.754;2023-04-25T13:28:43;14.10;1.00
20291;DHT22;10304;51.074;13.754;2023-04-25T13:31:10;14.00;1.00
20291;DHT22;10304;51.074;13.754;2023-04-25T13:33:37;13.80;1.00
20291;DHT22;10304;51.074;13.754;2023-04-25T13:36:04;13.80;1.00
20291;DHT22;10304;51.074;13.754;2023-04-25T13:38:31;13.70;1.00
20291;DHT22;10304;51.074;13.754;2023-04-25T13:40:58;13.60;1.00
20291;DHT22;10304;51.074;13.754;2023-04-25T13:43:25;13.50;1.00
20291;DHT22;10304;51.074;13.754;2023-04-25T13:45:52;13.40;1.00
20291;DHT22;10304;51.074;13.754;2023-04-25T13:48:19;13.30;1.00
20291;DHT22;10304;51.074;13.754;2023-04-25T13:50:46;13.20;1.00
20291;DHT22;10304;51.074;13.754;2023-04-25T13:53:13;13.10;1.00
20291;DHT22;10304;51.074;13.754;2023-04-25T13:55:40;13.10;1.00
20291;DHT22;10304;51.074;13.754;2023-04-25T13:58:07;13.00;1.00
20291;DHT22;10304;51.074;13.754;2023-04-25T14:00:40;12.90;1.00
20291;DHT22;10304;51.074;13.754;2023-04-25T14:03:09;12.90;1.00
20291;DHT22;10304;51.074;13.754;2023-04-25T14:05:36;12.90;1.00
20291;DHT22;10304;51.074;13.754;2023-04-25T14:08:09;12.80;1.00
20291;DHT22;10304;51.074;13.754;2023-04-25T14:10:36;12.80;1.00
20291;DHT22;10304;51.074;13.754;2023-04-25T14:13:03;12.80;1.00
20291;DHT22;10304;51.074;13.754;2023-04-25T14:15:31;12.80;1.00
20291;DHT22;10304;51.074;13.754;2023-04-25T14:18:00;12.90;1.00
20291;DHT22;10304;51.074;13.754;2023-04-25T14:20:27;12.90;1.00
20291;DHT22;10304;51.074;13.754;2023-04-25T14:22:54;12.90;1.00
20291;DHT22;10304;51.074;13.754;2023-04-25T14:25:22;13.00;1.00
20291;DHT22;10304;51.074;13.754;2023-04-25T14:27:49;13.10;1.00
20291;DHT22;10304;51.074;13.754;2023-04-25T14:30:17;13.20;1.00
20291;DHT22;10304;51.074;13.754;2023-04-25T14:32:44;13.40;1.00
20291;DHT22;10304;51.074;13.754;2023-04-25T14:35:12;13.60;1.00
20291;DHT22;10304;51.074;13.754;2023-04-25T14:37:39;13.70;1.00
20291;DHT22;10304;51.074;13.754;2023-04-25T14:40:07;13.90;1.00
20291;DHT22;10304;51.074;13.754;2023-04-25T14:42:37;14.10;1.00
20291;DHT22;10304;51.074;13.754;2023-04-25T14:45:04;14.70;1.00
20291;DHT22;10304;51.074;13.754;2023-04-25T14:47:31;15.30;1.00
20291;DHT22;10304;51.074;13.754;2023-04-25T14:49:58;15.70;1.00
20291;DHT22;10304;51.074;13.754;2023-04-25T14:52:25;15.80;1.00
20291;DHT22;10304;51.074;13.754;2023-04-25T14:54:52;16.00;1.00
20291;DHT22;10304;51.074;13.754;2023-04-25T14:57:19;15.90;1.00
20291;DHT22;10304;51.074;13.754;2023-04-25T14:59:45;15.90;1.00
20291;DHT22;10304;51.074;13.754;2023-04-25T15:02:12;16.00;1.00
20291;DHT22;10304;51.074;13.754;2023-04-25T15:04:39;16.00;1.00
20291;DHT22;10304;51.074;13.754;2023-04-25T15:07:06;16.00;1.00
20291;DHT22;10304;51.074;13.754;2023-04-25T15:09:32;15.90;1.00
20291;DHT22;10304;51.074;13.754;2023-04-25T15:11:59;15.70;1.00
20291;DHT22;10304;51.074;13.754;2023-04-25T15:14:26;15.60;1.00
20291;DHT22;10304;51.074;13.754;2023-04-25T15:16:52;15.40;1.00
20291;DHT22;10304;51.074;13.754;2023-04-25T15:19:19;15.10;1.00
20291;DHT22;10304;51.074;13.754;2023-04-25T15:21:46;14.90;1.00
20291;DHT22;10304;51.074;13.754;2023-04-25T15:24:13;14.70;1.00
20291;DHT22;10304;51.074;13.754;2023-04-25T15:26:41;14.60;1.00
20291;DHT22;10304;51.074;13.754;2023-04-25T15:29:08;14.50;1.00
20291;DHT22;10304;51.074;13.754;2023-04-25T15:31:34;14.30;1.00